sensor_id;sensor_type;location;lat;lon;timestamp;temperature;humidity
65058;HTU21D;51644;51.068;5.860;2023-05-27T00:00:49;13.99;61.93
65058;HTU21D;51644;51.068;5.860;2023-05-27T00:01:48;13.99;61.97
65058;HTU21D;51644;51.068;5.860;2023-05-27T00:02:47;13.97;61.96
65058;HTU21D;51644;51.068;5.860;2023-05-27T00:03:46;13.96;62.04
65058;HTU21D;51644;51.068;5.860;2023-05-27T00:04:44;13.94;62.07
65058;HTU21D;51644;51.068;5.860;2023-05-27T00:05:43;13.92;62.14
65058;HTU21D;51644;51.068;5.860;2023-05-27T00:06:41;13.91;62.17
65058;HTU21D;51644;51.068;5.860;2023-05-27T00:07:40;13.89;62.20
65058;HTU21D;51644;51.068;5.860;2023-05-27T00:08:39;13.90;62.24
65058;HTU21D;51644;51.068;5.860;2023-05-27T00:09:38;13.88;62.26
65058;HTU21D;51644;51.068;5.860;2023-05-27T00:10:36;13.86;62.29
65058;HTU21D;51644;51.068;5.860;2023-05-27T00:11:38;13.84;62.35
65058;HTU21D;51644;51.068;5.860;2023-05-27T00:12:36;13.84;62.36
65058;HTU21D;51644;51.068;5.860;2023-05-27T00:13:35;13.81;62.44
65058;HTU21D;51644;51.068;5.860;2023-05-27T00:14:34;13.80;62.51
65058;HTU21D;51644;51.068;5.860;2023-05-27T00:15:32;13.78;62.65
65058;HTU21D;51644;51.068;5.860;2023-05-27T00:16:31;13.77;62.74
65058;HTU21D;51644;51.068;5.860;2023-05-27T00:17:29;13.74;62.77
65058;HTU21D;51644;51.068;5.860;2023-05-27T00:18:28;13.73;62.86
65058;HTU21D;51644;51.068;5.860;2023-05-27T00:19:27;13.74;62.88
65058;HTU21D;51644;51.068;5.860;2023-05-27T00:20:27;13.73;62.87
65058;HTU21D;51644;51.068;5.860;2023-05-27T00:21:28;13.70;62.99
65058;HTU21D;51644;51.068;5.860;2023-05-27T00:22:26;13.68;63.07
65058;HTU21D;51644;51.068;5.860;2023-05-27T00:23:26;13.68;63.13
65058;HTU21D;51644;51.068;5.860;2023-05-27T00:24:25;13.64;63.20
65058;HTU21D;51644;51.068;5.860;2023-05-27T00:25:23;13.64;63.21
65058;HTU21D;51644;51.068;5.860;2023-05-27T00:26:22;13.63;63.32
65058;HTU21D;51644;51.068;5.860;2023-05-27T00:27:24;13.62;63.31
65058;HTU21D;51644;51.068;5.860;2023-05-27T00:28:22;13.61;63.34
65058;HTU21D;51644;51.068;5.860;2023-05-27T00:29:21;13.60;63.40
65058;HTU21D;51644;51.068;5.860;2023-05-27T00:30:20;13.56;63.47
65058;HTU21D;51644;51.068;5.860;2023-05-27T00:31:19;13.58;63.47
65058;HTU21D;51644;51.068;5.860;2023-05-27T00:32:17;13.56;63.48
65058;HTU21D;51644;51.068;5.860;2023-05-27T00:33:17;13.55;63.51
65058;HTU21D;51644;51.068;5.860;2023-05-27T00:34:16;13.53;63.60
65058;HTU21D;51644;51.068;5.860;2023-05-27T00:35:14;13.55;63.51
65058;HTU21D;51644;51.068;5.860;2023-05-27T00:36:13;13.53;63.53
65058;HTU21D;51644;51.068;5.860;2023-05-27T00:37:11;13.53;63.60
65058;HTU21D;51644;51.068;5.860;2023-05-27T00:38:10;13.50;63.56
65058;HTU21D;51644;51.068;5.860;2023-05-27T00:39:08;13.48;63.73
65058;HTU21D;51644;51.068;5.860;2023-05-27T00:40:11;13.47;63.74
65058;HTU21D;51644;51.068;5.860;2023-05-27T00:41:11;13.46;63.81
65058;HTU21D;51644;51.068;5.860;2023-05-27T00:42:13;13.44;63.86
65058;HTU21D;51644;51.068;5.860;2023-05-27T00:43:12;13.43;63.88
65058;HTU21D;51644;51.068;5.860;2023-05-27T00:44:10;13.43;63.92
65058;HTU21D;51644;51.068;5.860;2023-05-27T00:45:09;13.41;63.97
65058;HTU21D;51644;51.068;5.860;2023-05-27T00:46:09;13.40;64.02
65058;HTU21D;51644;51.068;5.860;2023-05-27T00:47:07;13.39;64.08
65058;HTU21D;51644;51.068;5.860;2023-05-27T00:48:10;13.35;64.15
65058;HTU21D;51644;51.068;5.860;2023-05-27T00:49:08;13.32;64.26
65058;HTU21D;51644;51.068;5.860;2023-05-27T00:50:08;13.32;64.34
65058;HTU21D;51644;51.068;5.860;2023-05-27T00:51:06;13.32;64.35
65058;HTU21D;51644;51.068;5.860;2023-05-27T00:52:05;13.30;64.38
65058;HTU21D;51644;51.068;5.860;2023-05-27T00:53:04;13.26;64.47
65058;HTU21D;51644;51.068;5.860;2023-05-27T00:54:03;13.26;64.51
65058;HTU21D;51644;51.068;5.860;2023-05-27T00:55:06;13.26;64.60
65058;HTU21D;51644;51.068;5.860;2023-05-27T00:56:06;13.22;64.68
65058;HTU21D;51644;51.068;5.860;2023-05-27T00:57:05;13.21;64.71
65058;HTU21D;51644;51.068;5.860;2023-05-27T00:58:04;13.22;64.66
65058;HTU21D;51644;51.068;5.860;2023-05-27T00:59:05;13.20;64.69
65058;HTU21D;51644;51.068;5.860;2023-05-27T01:00:04;13.17;64.73
65058;HTU21D;51644;51.068;5.860;2023-05-27T01:01:08;13.17;64.79
65058;HTU21D;51644;51.068;5.860;2023-05-27T01:02:10;13.17;64.81
65058;HTU21D;51644;51.068;5.860;2023-05-27T01:03:08;13.16;64.82
65058;HTU21D;51644;51.068;5.860;2023-05-27T01:04:07;13.14;64.85
65058;HTU21D;51644;51.068;5.860;2023-05-27T01:05:14;13.11;64.95
65058;HTU21D;51644;51.068;5.860;2023-05-27T01:06:38;13.10;64.99
65058;HTU21D;51644;51.068;5.860;2023-05-27T01:09:20;13.08;65.11
65058;HTU21D;51644;51.068;5.860;2023-05-27T01:11:43;13.06;65.17
65058;HTU21D;51644;51.068;5.860;2023-05-27T01:12:59;13.03;65.24
65058;HTU21D;51644;51.068;5.860;2023-05-27T01:14:05;13.03;65.31
65058;HTU21D;51644;51.068;5.860;2023-05-27T01:15:06;13.00;65.36
65058;HTU21D;51644;51.068;5.860;2023-05-27T01:16:13;12.99;65.40
65058;HTU21D;51644;51.068;5.860;2023-05-27T01:17:16;12.95;65.54
65058;HTU21D;51644;51.068;5.860;2023-05-27T01:18:16;12.93;65.57
65058;HTU21D;51644;51.068;5.860;2023-05-27T01:19:27;12.93;65.66
65058;HTU21D;51644;51.068;5.860;2023-05-27T01:20:32;12.90;65.74
65058;HTU21D;51644;51.068;5.860;2023-05-27T01:21:34;12.88;65.82
65058;HTU21D;51644;51.068;5.860;2023-05-27T01:22:39;12.87;65.92
65058;HTU21D;51644;51.068;5.860;2023-05-27T01:23:43;12.84;66.02
65058;HTU21D;51644;51.068;5.860;2023-05-27T01:24:45;12.84;66.08
65058;HTU21D;51644;51.068;5.860;2023-05-27T01:25:44;12.82;66.11
65058;HTU21D;51644;51.068;5.860;2023-05-27T01:26:43;12.81;66.11
65058;HTU21D;51644;51.068;5.860;2023-05-27T01:27:42;12.82;66.10
65058;HTU21D;51644;51.068;5.860;2023-05-27T01:28:41;12.81;66.12
65058;HTU21D;51644;51.068;5.860;2023-05-27T01:29:41;12.78;66.26
65058;HTU21D;51644;51.068;5.860;2023-05-27T01:30:40;12.75;66.37
65058;HTU21D;51644;51.068;5.860;2023-05-27T01:33:12;12.73;66.45
65058;HTU21D;51644;51.068;5.860;2023-05-27T01:34:16;12.71;66.48
65058;HTU21D;51644;51.068;5.860;2023-05-27T01:36:53;12.65;66.62
65058;HTU21D;51644;51.068;5.860;2023-05-27T01:37:56;12.66;66.57
65058;HTU21D;51644;51.068;5.860;2023-05-27T01:38:59;12.65;66.60
65058;HTU21D;51644;51.068;5.860;2023-05-27T01:40:00;12.62;66.71
65058;HTU21D;51644;51.068;5.860;2023-05-27T01:41:01;12.62;66.85
65058;HTU21D;51644;51.068;5.860;2023-05-27T01:42:02;12.58;66.90
65058;HTU21D;51644;51.068;5.860;2023-05-27T01:43:01;12.59;66.83
65058;HTU21D;51644;51.068;5.860;2023-05-27T01:44:02;12.58;66.87
65058;HTU21D;51644;51.068;5.860;2023-05-27T01:45:05;12.56;66.90
65058;HTU21D;51644;51.068;5.860;2023-05-27T01:46:04;12.56;66.97
65058;HTU21D;51644;51.068;5.860;2023-05-27T01:47:03;12.56;66.98
65058;HTU21D;51644;51.068;5.860;2023-05-27T01:48:02;12.55;67.03
65058;HTU21D;51644;51.068;5.860;2023-05-27T01:49:01;12.53;67.02
65058;HTU21D;51644;51.068;5.860;2023-05-27T01:49:59;12.53;67.00
65058;HTU21D;51644;51.068;5.860;2023-05-27T01:51:00;12.53;67.02
65058;HTU21D;51644;51.068;5.860;2023-05-27T01:51:59;12.50;67.07
65058;HTU21D;51644;51.068;5.860;2023-05-27T01:53:03;12.50;67.10
65058;HTU21D;51644;51.068;5.860;2023-05-27T01:54:02;12.49;67.14
65058;HTU21D;51644;51.068;5.860;2023-05-27T01:55:01;12.48;67.25
65058;HTU21D;51644;51.068;5.860;2023-05-27T01:56:00;12.48;67.20
65058;HTU21D;51644;51.068;5.860;2023-05-27T01:56:59;12.46;67.26
65058;HTU21D;51644;51.068;5.860;2023-05-27T01:57:58;12.43;67.34
65058;HTU21D;51644;51.068;5.860;2023-05-27T01:58:56;12.43;67.44
65058;HTU21D;51644;51.068;5.860;2023-05-27T01:59:55;12.40;67.48
65058;HTU21D;51644;51.068;5.860;2023-05-27T02:00:55;12.40;67.47
65058;HTU21D;51644;51.068;5.860;2023-05-27T02:01:53;12.41;67.49
65058;HTU21D;51644;51.068;5.860;2023-05-27T02:02:52;12.37;67.57
65058;HTU21D;51644;51.068;5.860;2023-05-27T02:03:51;12.36;67.62
65058;HTU21D;51644;51.068;5.860;2023-05-27T02:04:50;12.34;67.65
65058;HTU21D;51644;51.068;5.860;2023-05-27T02:05:49;12.33;67.72
65058;HTU21D;51644;51.068;5.860;2023-05-27T02:06:50;12.30;67.81
65058;HTU21D;51644;51.068;5.860;2023-05-27T02:07:49;12.26;67.92
65058;HTU21D;51644;51.068;5.860;2023-05-27T02:08:48;12.23;68.01
65058;HTU21D;51644;51.068;5.860;2023-05-27T02:09:47;12.20;68.11
65058;HTU21D;51644;51.068;5.860;2023-05-27T02:10:45;12.19;68.10
65058;HTU21D;51644;51.068;5.860;2023-05-27T02:11:45;12.20;68.10
65058;HTU21D;51644;51.068;5.860;2023-05-27T02:12:43;12.20;68.07
65058;HTU21D;51644;51.068;5.860;2023-05-27T02:13:42;12.19;68.10
65058;HTU21D;51644;51.068;5.860;2023-05-27T02:14:41;12.17;68.13
65058;HTU21D;51644;51.068;5.860;2023-05-27T02:15:40;12.15;68.23
65058;HTU21D;51644;51.068;5.860;2023-05-27T02:16:39;12.14;68.33
65058;HTU21D;51644;51.068;5.860;2023-05-27T02:17:37;12.12;68.45
65058;HTU21D;51644;51.068;5.860;2023-05-27T02:18:38;12.12;68.51
65058;HTU21D;51644;51.068;5.860;2023-05-27T02:19:37;12.12;68.49
65058;HTU21D;51644;51.068;5.860;2023-05-27T02:20:41;12.11;68.46
65058;HTU21D;51644;51.068;5.860;2023-05-27T02:21:40;12.10;68.52
65058;HTU21D;51644;51.068;5.860;2023-05-27T02:22:38;12.11;68.49
65058;HTU21D;51644;51.068;5.860;2023-05-27T02:23:37;12.10;68.49
65058;HTU21D;51644;51.068;5.860;2023-05-27T02:24:36;12.08;68.51
65058;HTU21D;51644;51.068;5.860;2023-05-27T02:25:34;12.07;68.56
65058;HTU21D;51644;51.068;5.860;2023-05-27T02:26:34;12.07;68.55
65058;HTU21D;51644;51.068;5.860;2023-05-27T02:27:34;12.05;68.63
65058;HTU21D;51644;51.068;5.860;2023-05-27T02:28:33;12.02;68.71
65058;HTU21D;51644;51.068;5.860;2023-05-27T02:29:32;11.99;68.86
65058;HTU21D;51644;51.068;5.860;2023-05-27T02:30:31;11.99;68.98
65058;HTU21D;51644;51.068;5.860;2023-05-27T02:31:29;11.97;69.04
65058;HTU21D;51644;51.068;5.860;2023-05-27T02:32:28;11.96;69.07
65058;HTU21D;51644;51.068;5.860;2023-05-27T02:33:26;11.93;69.16
65058;HTU21D;51644;51.068;5.860;2023-05-27T02:34:25;11.91;69.26
65058;HTU21D;51644;51.068;5.860;2023-05-27T02:35:24;11.90;69.32
65058;HTU21D;51644;51.068;5.860;2023-05-27T02:36:24;11.85;69.40
65058;HTU21D;51644;51.068;5.860;2023-05-27T02:37:23;11.85;69.39
65058;HTU21D;51644;51.068;5.860;2023-05-27T02:38:23;11.85;69.44
65058;HTU21D;51644;51.068;5.860;2023-05-27T02:39:21;11.84;69.47
65058;HTU21D;51644;51.068;5.860;2023-05-27T02:40:24;11.84;69.46
65058;HTU21D;51644;51.068;5.860;2023-05-27T02:41:23;11.84;69.42
65058;HTU21D;51644;51.068;5.860;2023-05-27T02:42:21;11.84;69.50
65058;HTU21D;51644;51.068;5.860;2023-05-27T02:43:22;11.82;69.55
65058;HTU21D;51644;51.068;5.860;2023-05-27T02:44:21;11.83;69.55
65058;HTU21D;51644;51.068;5.860;2023-05-27T02:45:19;11.81;69.51
65058;HTU21D;51644;51.068;5.860;2023-05-27T02:46:18;11.84;69.42
65058;HTU21D;51644;51.068;5.860;2023-05-27T02:47:17;11.81;69.49
65058;HTU21D;51644;51.068;5.860;2023-05-27T02:48:15;11.78;69.63
65058;HTU21D;51644;51.068;5.860;2023-05-27T02:49:14;11.78;69.59
65058;HTU21D;51644;51.068;5.860;2023-05-27T02:50:13;11.78;69.58
65058;HTU21D;51644;51.068;5.860;2023-05-27T02:51:11;11.79;69.52
65058;HTU21D;51644;51.068;5.860;2023-05-27T02:52:10;11.77;69.56
65058;HTU21D;51644;51.068;5.860;2023-05-27T02:53:08;11.76;69.56
65058;HTU21D;51644;51.068;5.860;2023-05-27T02:54:07;11.72;69.71
65058;HTU21D;51644;51.068;5.860;2023-05-27T02:55:07;11.73;69.75
65058;HTU21D;51644;51.068;5.860;2023-05-27T02:56:06;11.68;69.91
65058;HTU21D;51644;51.068;5.860;2023-05-27T02:57:04;11.66;69.94
65058;HTU21D;51644;51.068;5.860;2023-05-27T02:58:03;11.64;70.08
65058;HTU21D;51644;51.068;5.860;2023-05-27T02:59:03;11.63;70.11
65058;HTU21D;51644;51.068;5.860;2023-05-27T03:00:03;11.62;70.16
65058;HTU21D;51644;51.068;5.860;2023-05-27T03:01:02;11.62;70.16
65058;HTU21D;51644;51.068;5.860;2023-05-27T03:02:00;11.61;70.21
65058;HTU21D;51644;51.068;5.860;2023-05-27T03:02:59;11.61;70.21
65058;HTU21D;51644;51.068;5.860;2023-05-27T03:03:58;11.61;70.26
65058;HTU21D;51644;51.068;5.860;2023-05-27T03:04:57;11.58;70.27
65058;HTU21D;51644;51.068;5.860;2023-05-27T03:05:55;11.58;70.36
65058;HTU21D;51644;51.068;5.860;2023-05-27T03:06:54;11.56;70.37
65058;HTU21D;51644;51.068;5.860;2023-05-27T03:07:53;11.56;70.46
65058;HTU21D;51644;51.068;5.860;2023-05-27T03:08:51;11.54;70.61
65058;HTU21D;51644;51.068;5.860;2023-05-27T03:09:50;11.55;70.64
65058;HTU21D;51644;51.068;5.860;2023-05-27T03:10:48;11.49;70.68
65058;HTU21D;51644;51.068;5.860;2023-05-27T03:11:47;11.48;70.81
65058;HTU21D;51644;51.068;5.860;2023-05-27T03:12:45;11.45;70.91
65058;HTU21D;51644;51.068;5.860;2023-05-27T03:13:44;11.44;70.92
65058;HTU21D;51644;51.068;5.860;2023-05-27T03:14:43;11.42;70.98
65058;HTU21D;51644;51.068;5.860;2023-05-27T03:15:41;11.41;71.06
65058;HTU21D;51644;51.068;5.860;2023-05-27T03:16:40;11.41;71.10
65058;HTU21D;51644;51.068;5.860;2023-05-27T03:17:38;11.40;71.14
65058;HTU21D;51644;51.068;5.860;2023-05-27T03:18:37;11.38;71.22
65058;HTU21D;51644;51.068;5.860;2023-05-27T03:19:35;11.39;71.23
65058;HTU21D;51644;51.068;5.860;2023-05-27T03:20:34;11.39;71.16
65058;HTU21D;51644;51.068;5.860;2023-05-27T03:21:33;11.40;71.17
65058;HTU21D;51644;51.068;5.860;2023-05-27T03:22:31;11.39;71.15
65058;HTU21D;51644;51.068;5.860;2023-05-27T03:23:30;11.39;71.13
65058;HTU21D;51644;51.068;5.860;2023-05-27T03:24:28;11.38;71.11
65058;HTU21D;51644;51.068;5.860;2023-05-27T03:25:30;11.41;70.99
65058;HTU21D;51644;51.068;5.860;2023-05-27T03:26:31;11.39;71.06
65058;HTU21D;51644;51.068;5.860;2023-05-27T03:27:36;11.38;71.19
65058;HTU21D;51644;51.068;5.860;2023-05-27T03:28:38;11.31;71.25
65058;HTU21D;51644;51.068;5.860;2023-05-27T03:29:37;11.31;71.29
65058;HTU21D;51644;51.068;5.860;2023-05-27T03:30:36;11.28;71.36
65058;HTU21D;51644;51.068;5.860;2023-05-27T03:31:35;11.27;71.48
65058;HTU21D;51644;51.068;5.860;2023-05-27T03:32:38;11.26;71.59
65058;HTU21D;51644;51.068;5.860;2023-05-27T03:33:37;11.26;71.57
65058;HTU21D;51644;51.068;5.860;2023-05-27T03:34:36;11.26;71.60
65058;HTU21D;51644;51.068;5.860;2023-05-27T03:35:37;11.26;71.61
65058;HTU21D;51644;51.068;5.860;2023-05-27T03:36:36;11.27;71.64
65058;HTU21D;51644;51.068;5.860;2023-05-27T03:37:35;11.27;71.70
65058;HTU21D;51644;51.068;5.860;2023-05-27T03:38:37;11.26;71.70
65058;HTU21D;51644;51.068;5.860;2023-05-27T03:39:35;11.26;71.61
65058;HTU21D;51644;51.068;5.860;2023-05-27T03:40:34;11.27;71.62
65058;HTU21D;51644;51.068;5.860;2023-05-27T03:41:37;11.27;71.56
65058;HTU21D;51644;51.068;5.860;2023-05-27T03:42:36;11.26;71.58
65058;HTU21D;51644;51.068;5.860;2023-05-27T03:43:35;11.28;71.59
65058;HTU21D;51644;51.068;5.860;2023-05-27T03:44:33;11.28;71.58
65058;HTU21D;51644;51.068;5.860;2023-05-27T03:45:32;11.27;71.62
65058;HTU21D;51644;51.068;5.860;2023-05-27T03:46:32;11.25;71.64
65058;HTU21D;51644;51.068;5.860;2023-05-27T03:47:30;11.25;71.64
65058;HTU21D;51644;51.068;5.860;2023-05-27T03:48:29;11.27;71.55
65058;HTU21D;51644;51.068;5.860;2023-05-27T03:49:28;11.25;71.61
65058;HTU21D;51644;51.068;5.860;2023-05-27T03:50:26;11.27;71.62
65058;HTU21D;51644;51.068;5.860;2023-05-27T03:51:25;11.28;71.48
65058;HTU21D;51644;51.068;5.860;2023-05-27T03:52:24;11.28;71.48
65058;HTU21D;51644;51.068;5.860;2023-05-27T03:53:22;11.29;71.45
65058;HTU21D;51644;51.068;5.860;2023-05-27T03:54:21;11.29;71.42
65058;HTU21D;51644;51.068;5.860;2023-05-27T03:55:21;11.30;71.44
65058;HTU21D;51644;51.068;5.860;2023-05-27T03:56:20;11.32;71.35
65058;HTU21D;51644;51.068;5.860;2023-05-27T03:57:18;11.31;71.44
65058;HTU21D;51644;51.068;5.860;2023-05-27T03:58:17;11.30;71.52
65058;HTU21D;51644;51.068;5.860;2023-05-27T03:59:16;11.31;71.42
65058;HTU21D;51644;51.068;5.860;2023-05-27T04:00:16;11.31;71.50
65058;HTU21D;51644;51.068;5.860;2023-05-27T04:01:21;11.30;71.54
65058;HTU21D;51644;51.068;5.860;2023-05-27T04:02:20;11.30;71.61
65058;HTU21D;51644;51.068;5.860;2023-05-27T04:03:19;11.31;71.65
65058;HTU21D;51644;51.068;5.860;2023-05-27T04:04:17;11.31;71.71
65058;HTU21D;51644;51.068;5.860;2023-05-27T04:05:16;11.31;71.78
65058;HTU21D;51644;51.068;5.860;2023-05-27T04:06:15;11.30;71.78
65058;HTU21D;51644;51.068;5.860;2023-05-27T04:07:13;11.32;71.67
65058;HTU21D;51644;51.068;5.860;2023-05-27T04:08:15;11.33;71.71
65058;HTU21D;51644;51.068;5.860;2023-05-27T04:09:13;11.36;71.71
65058;HTU21D;51644;51.068;5.860;2023-05-27T04:10:12;11.36;71.67
65058;HTU21D;51644;51.068;5.860;2023-05-27T04:11:11;11.34;71.71
65058;HTU21D;51644;51.068;5.860;2023-05-27T04:12:13;11.38;71.61
65058;HTU21D;51644;51.068;5.860;2023-05-27T04:13:11;11.39;71.55
65058;HTU21D;51644;51.068;5.860;2023-05-27T04:14:12;11.41;71.43
65058;HTU21D;51644;51.068;5.860;2023-05-27T04:15:11;11.42;71.38
65058;HTU21D;51644;51.068;5.860;2023-05-27T04:16:09;11.45;71.32
65058;HTU21D;51644;51.068;5.860;2023-05-27T04:17:08;11.45;71.30
65058;HTU21D;51644;51.068;5.860;2023-05-27T04:18:07;11.46;71.25
65058;HTU21D;51644;51.068;5.860;2023-05-27T04:19:07;11.45;71.20
65058;HTU21D;51644;51.068;5.860;2023-05-27T04:20:07;11.45;71.25
65058;HTU21D;51644;51.068;5.860;2023-05-27T04:21:11;11.47;71.29
65058;HTU21D;51644;51.068;5.860;2023-05-27T04:22:11;11.49;71.28
65058;HTU21D;51644;51.068;5.860;2023-05-27T04:23:10;11.51;71.26
65058;HTU21D;51644;51.068;5.860;2023-05-27T04:24:08;11.52;71.24
65058;HTU21D;51644;51.068;5.860;2023-05-27T04:25:07;11.51;71.25
65058;HTU21D;51644;51.068;5.860;2023-05-27T04:26:17;11.55;71.21
65058;HTU21D;51644;51.068;5.860;2023-05-27T04:27:21;11.55;71.19
65058;HTU21D;51644;51.068;5.860;2023-05-27T04:28:23;11.56;71.13
65058;HTU21D;51644;51.068;5.860;2023-05-27T04:29:22;11.58;71.03
65058;HTU21D;51644;51.068;5.860;2023-05-27T04:30:21;11.58;71.00
65058;HTU21D;51644;51.068;5.860;2023-05-27T04:31:20;11.59;71.00
65058;HTU21D;51644;51.068;5.860;2023-05-27T04:32:24;11.60;71.00
65058;HTU21D;51644;51.068;5.860;2023-05-27T04:33:23;11.63;70.93
65058;HTU21D;51644;51.068;5.860;2023-05-27T04:34:22;11.63;70.90
65058;HTU21D;51644;51.068;5.860;2023-05-27T04:35:21;11.67;70.82
65058;HTU21D;51644;51.068;5.860;2023-05-27T04:36:20;11.68;70.74
65058;HTU21D;51644;51.068;5.860;2023-05-27T04:37:44;11.68;70.64
65058;HTU21D;51644;51.068;5.860;2023-05-27T04:38:43;11.69;70.61
65058;HTU21D;51644;51.068;5.860;2023-05-27T04:39:43;11.72;70.61
65058;HTU21D;51644;51.068;5.860;2023-05-27T04:40:44;11.73;70.55
65058;HTU21D;51644;51.068;5.860;2023-05-27T04:42:11;11.76;70.51
65058;HTU21D;51644;51.068;5.860;2023-05-27T04:43:14;11.76;70.48
65058;HTU21D;51644;51.068;5.860;2023-05-27T04:44:15;11.75;70.60
65058;HTU21D;51644;51.068;5.860;2023-05-27T04:45:17;11.74;70.62
65058;HTU21D;51644;51.068;5.860;2023-05-27T04:46:16;11.77;70.60
65058;HTU21D;51644;51.068;5.860;2023-05-27T04:47:15;11.76;70.63
65058;HTU21D;51644;51.068;5.860;2023-05-27T04:48:15;11.77;70.67
65058;HTU21D;51644;51.068;5.860;2023-05-27T04:49:17;11.78;70.70
65058;HTU21D;51644;51.068;5.860;2023-05-27T04:50:15;11.79;70.71
65058;HTU21D;51644;51.068;5.860;2023-05-27T04:51:15;11.82;70.77
65058;HTU21D;51644;51.068;5.860;2023-05-27T04:52:14;11.83;70.69
65058;HTU21D;51644;51.068;5.860;2023-05-27T04:53:12;11.86;70.60
65058;HTU21D;51644;51.068;5.860;2023-05-27T04:54:11;11.88;70.52
65058;HTU21D;51644;51.068;5.860;2023-05-27T04:55:11;11.89;70.42
65058;HTU21D;51644;51.068;5.860;2023-05-27T04:56:12;11.91;70.47
65058;HTU21D;51644;51.068;5.860;2023-05-27T04:57:13;11.93;70.35
65058;HTU21D;51644;51.068;5.860;2023-05-27T04:58:17;11.94;70.29
65058;HTU21D;51644;51.068;5.860;2023-05-27T04:59:15;11.98;70.16
65058;HTU21D;51644;51.068;5.860;2023-05-27T05:00:16;11.99;70.15
65058;HTU21D;51644;51.068;5.860;2023-05-27T05:01:23;12.02;70.07
65058;HTU21D;51644;51.068;5.860;2023-05-27T05:02:38;12.04;70.03
65058;HTU21D;51644;51.068;5.860;2023-05-27T05:03:46;12.06;69.97
65058;HTU21D;51644;51.068;5.860;2023-05-27T05:05:08;12.07;69.84
65058;HTU21D;51644;51.068;5.860;2023-05-27T05:06:07;12.08;69.74
65058;HTU21D;51644;51.068;5.860;2023-05-27T05:07:05;12.10;69.77
65058;HTU21D;51644;51.068;5.860;2023-05-27T05:08:06;12.13;69.81
65058;HTU21D;51644;51.068;5.860;2023-05-27T05:09:05;12.14;69.72
65058;HTU21D;51644;51.068;5.860;2023-05-27T05:10:05;12.16;69.65
65058;HTU21D;51644;51.068;5.860;2023-05-27T05:11:09;12.18;69.55
65058;HTU21D;51644;51.068;5.860;2023-05-27T05:12:08;12.21;69.59
65058;HTU21D;51644;51.068;5.860;2023-05-27T05:13:11;12.21;69.54
65058;HTU21D;51644;51.068;5.860;2023-05-27T05:14:10;12.22;69.46
65058;HTU21D;51644;51.068;5.860;2023-05-27T05:15:09;12.25;69.40
65058;HTU21D;51644;51.068;5.860;2023-05-27T05:16:08;12.23;69.60
65058;HTU21D;51644;51.068;5.860;2023-05-27T05:17:06;12.25;69.56
65058;HTU21D;51644;51.068;5.860;2023-05-27T05:18:05;12.27;69.62
65058;HTU21D;51644;51.068;5.860;2023-05-27T05:19:04;12.30;69.58
65058;HTU21D;51644;51.068;5.860;2023-05-27T05:20:11;12.35;69.52
65058;HTU21D;51644;51.068;5.860;2023-05-27T05:21:12;12.38;69.49
65058;HTU21D;51644;51.068;5.860;2023-05-27T05:22:12;12.42;69.47
65058;HTU21D;51644;51.068;5.860;2023-05-27T05:23:12;12.46;69.41
65058;HTU21D;51644;51.068;5.860;2023-05-27T05:24:11;12.50;69.34
65058;HTU21D;51644;51.068;5.860;2023-05-27T05:25:13;12.46;69.34
65058;HTU21D;51644;51.068;5.860;2023-05-27T05:26:19;12.46;69.13
65058;HTU21D;51644;51.068;5.860;2023-05-27T05:27:18;12.48;69.09
65058;HTU21D;51644;51.068;5.860;2023-05-27T05:28:16;12.49;69.10
65058;HTU21D;51644;51.068;5.860;2023-05-27T05:29:15;12.49;69.14
65058;HTU21D;51644;51.068;5.860;2023-05-27T05:30:17;12.51;69.12
65058;HTU21D;51644;51.068;5.860;2023-05-27T05:31:15;12.51;69.06
65058;HTU21D;51644;51.068;5.860;2023-05-27T05:32:14;12.56;69.05
65058;HTU21D;51644;51.068;5.860;2023-05-27T05:33:13;12.60;69.05
65058;HTU21D;51644;51.068;5.860;2023-05-27T05:34:12;12.64;68.89
65058;HTU21D;51644;51.068;5.860;2023-05-27T05:35:10;12.71;68.82
65058;HTU21D;51644;51.068;5.860;2023-05-27T05:36:11;12.76;68.71
65058;HTU21D;51644;51.068;5.860;2023-05-27T05:37:21;12.82;68.65
65058;HTU21D;51644;51.068;5.860;2023-05-27T05:38:21;12.88;68.38
65058;HTU21D;51644;51.068;5.860;2023-05-27T05:39:21;12.92;68.17
65058;HTU21D;51644;51.068;5.860;2023-05-27T05:40:24;12.96;68.13
65058;HTU21D;51644;51.068;5.860;2023-05-27T05:41:40;13.00;67.97
65058;HTU21D;51644;51.068;5.860;2023-05-27T05:42:38;13.02;67.88
65058;HTU21D;51644;51.068;5.860;2023-05-27T05:43:38;13.03;67.86
65058;HTU21D;51644;51.068;5.860;2023-05-27T05:44:37;13.06;67.81
65058;HTU21D;51644;51.068;5.860;2023-05-27T05:45:35;13.07;67.73
65058;HTU21D;51644;51.068;5.860;2023-05-27T05:46:34;13.10;67.75
65058;HTU21D;51644;51.068;5.860;2023-05-27T05:47:33;13.14;67.68
65058;HTU21D;51644;51.068;5.860;2023-05-27T05:48:40;13.17;67.61
65058;HTU21D;51644;51.068;5.860;2023-05-27T05:49:41;13.19;67.59
65058;HTU21D;51644;51.068;5.860;2023-05-27T05:50:46;13.23;67.62
65058;HTU21D;51644;51.068;5.860;2023-05-27T05:51:45;13.26;67.47
65058;HTU21D;51644;51.068;5.860;2023-05-27T05:52:43;13.31;67.30
65058;HTU21D;51644;51.068;5.860;2023-05-27T05:53:43;13.33;67.08
65058;HTU21D;51644;51.068;5.860;2023-05-27T05:54:41;13.30;67.03
65058;HTU21D;51644;51.068;5.860;2023-05-27T05:55:40;13.34;66.95
65058;HTU21D;51644;51.068;5.860;2023-05-27T05:56:39;13.32;66.88
65058;HTU21D;51644;51.068;5.860;2023-05-27T05:57:38;13.32;66.82
65058;HTU21D;51644;51.068;5.860;2023-05-27T05:58:37;13.32;66.81
65058;HTU21D;51644;51.068;5.860;2023-05-27T05:59:38;13.35;66.81
65058;HTU21D;51644;51.068;5.860;2023-05-27T06:00:37;13.39;66.69
65058;HTU21D;51644;51.068;5.860;2023-05-27T06:01:59;13.44;66.60
65058;HTU21D;51644;51.068;5.860;2023-05-27T06:03:02;13.46;66.40
65058;HTU21D;51644;51.068;5.860;2023-05-27T06:04:15;13.51;66.11
65058;HTU21D;51644;51.068;5.860;2023-05-27T06:05:17;13.48;66.14
65058;HTU21D;51644;51.068;5.860;2023-05-27T06:06:16;13.49;66.24
65058;HTU21D;51644;51.068;5.860;2023-05-27T06:07:32;13.51;66.17
65058;HTU21D;51644;51.068;5.860;2023-05-27T06:08:39;13.49;66.37
65058;HTU21D;51644;51.068;5.860;2023-05-27T06:09:45;13.54;66.18
65058;HTU21D;51644;51.068;5.860;2023-05-27T06:10:51;13.58;66.24
65058;HTU21D;51644;51.068;5.860;2023-05-27T06:11:50;13.63;66.17
65058;HTU21D;51644;51.068;5.860;2023-05-27T06:12:49;13.70;65.98
65058;HTU21D;51644;51.068;5.860;2023-05-27T06:13:48;13.76;65.88
65058;HTU21D;51644;51.068;5.860;2023-05-27T06:14:53;13.82;65.70
65058;HTU21D;51644;51.068;5.860;2023-05-27T06:16:04;13.89;65.58
65058;HTU21D;51644;51.068;5.860;2023-05-27T06:17:04;13.93;65.54
65058;HTU21D;51644;51.068;5.860;2023-05-27T06:18:04;13.98;65.47
65058;HTU21D;51644;51.068;5.860;2023-05-27T06:19:03;14.04;65.34
65058;HTU21D;51644;51.068;5.860;2023-05-27T06:20:02;14.10;65.08
65058;HTU21D;51644;51.068;5.860;2023-05-27T06:21:00;14.17;64.85
65058;HTU21D;51644;51.068;5.860;2023-05-27T06:22:03;14.23;64.66